Time;durP1;ratioP1;P1;durP2;ratioP2;P2;SDS_P1;SDS_P2;PMS_P1;PMS_P2;Temp;Humidity;BMP_temperature;BMP_pressure;BME280_temperature;BME280_humidity;BME280_pressure;Samples;Min_cycle;Max_cycle;Signal;HPM_P1;HPM_P2
2023/01/07 00:01:21;;;;;;;83.00;39.78;;;9.50;99.90;;;;;;5035793;28;20091;-47
2023/01/07 00:03:47;;;;;;;82.75;40.72;;;9.60;99.90;;;;;;5036774;28;20041;-48
2023/01/07 00:06:15;;;;;;;74.65;36.58;;;9.40;99.90;;;;;;5037246;28;20041;-46
2023/01/07 00:08:43;;;;;;;75.43;38.13;;;9.60;99.90;;;;;;5036509;28;20216;-47
2023/01/07 00:11:18;;;;;;;71.45;36.90;;;9.60;99.90;;;;;;5035837;28;20506;-49
2023/01/07 00:13:45;;;;;;;68.95;34.63;;;9.70;99.90;;;;;;5037228;28;20143;-50
2023/01/07 00:16:14;;;;;;;75.07;35.90;;;9.60;99.90;;;;;;5036261;28;20049;-48
2023/01/07 00:18:41;;;;;;;74.63;35.97;;;9.70;99.90;;;;;;5018301;28;20048;-48
2023/01/07 00:21:09;;;;;;;73.20;35.83;;;9.70;99.90;;;;;;5034554;28;20117;-49
2023/01/07 00:23:36;;;;;;;67.13;35.03;;;9.50;99.90;;;;;;5035708;28;20041;-49
2023/01/07 00:26:05;;;;;;;62.03;34.05;;;9.80;99.90;;;;;;5035495;28;20056;-49
2023/01/07 00:28:34;;;;;;;69.30;35.63;;;9.50;99.90;;;;;;5036229;28;20055;-47
2023/01/07 00:31:02;;;;;;;73.80;36.75;;;9.60;99.90;;;;;;5034724;28;20048;-50
2023/01/07 00:33:28;;;;;;;76.07;36.83;;;9.80;99.90;;;;;;5035879;28;20037;-47
2023/01/07 00:36:08;;;;;;;72.18;34.83;;;9.70;99.90;;;;;;5035901;28;20047;-46
2023/01/07 00:38:34;;;;;;;64.93;33.92;;;9.60;99.90;;;;;;5035804;28;20372;-47
2023/01/07 00:41:00;;;;;;;61.10;34.47;;;9.70;99.90;;;;;;5016346;28;20065;-48
2023/01/07 00:43:26;;;;;;;50.53;32.50;;;9.80;99.90;;;;;;5035766;28;20033;-49
2023/01/07 00:45:52;;;;;;;52.58;31.40;;;10.00;99.90;;;;;;5035420;28;20491;-48
2023/01/07 00:48:18;;;;;;;56.72;33.38;;;10.00;99.90;;;;;;5035371;28;20106;-48
2023/01/07 00:50:46;;;;;;;55.80;32.38;;;10.00;99.90;;;;;;5035356;28;20049;-47
2023/01/07 00:53:12;;;;;;;50.88;31.77;;;9.90;99.90;;;;;;5035317;28;20044;-47
2023/01/07 00:55:38;;;;;;;46.63;31.35;;;9.90;99.90;;;;;;5017450;28;20063;-48
2023/01/07 00:58:03;;;;;;;51.30;30.80;;;10.00;99.90;;;;;;5035397;28;20049;-48
2023/01/07 01:00:30;;;;;;;43.13;30.20;;;10.10;99.90;;;;;;5035673;28;20438;-49
2023/01/07 01:02:55;;;;;;;45.90;31.30;;;9.90;99.90;;;;;;5035072;28;20048;-46
2023/01/07 01:05:21;;;;;;;53.70;31.95;;;9.90;99.90;;;;;;5017688;28;20084;-48
2023/01/07 01:07:48;;;;;;;48.55;31.30;;;9.90;99.90;;;;;;5035934;28;20045;-47
2023/01/07 01:10:17;;;;;;;42.17;30.58;;;10.10;99.90;;;;;;5036951;28;20583;-48
2023/01/07 01:12:43;;;;;;;41.35;30.63;;;10.10;99.90;;;;;;5016440;28;20503;-47
2023/01/07 01:15:12;;;;;;;43.67;32.60;;;10.20;99.90;;;;;;5036008;28;20491;-48
2023/01/07 01:17:39;;;;;;;42.20;30.60;;;10.00;99.90;;;;;;5034509;28;20353;-47
2023/01/07 01:20:06;;;;;;;39.85;32.75;;;9.90;99.90;;;;;;5034696;28;20474;-50
2023/01/07 01:22:32;;;;;;;39.05;31.08;;;10.20;99.90;;;;;;5033195;28;20513;-48
2023/01/07 01:24:58;;;;;;;39.05;30.35;;;10.30;99.90;;;;;;5035020;28;20045;-48
2023/01/07 01:27:24;;;;;;;41.50;30.88;;;10.10;99.90;;;;;;5035015;28;20037;-47
2023/01/07 01:29:49;;;;;;;38.92;32.45;;;9.90;99.90;;;;;;5035481;28;20158;-47
2023/01/07 01:32:15;;;;;;;39.72;31.83;;;10.20;99.90;;;;;;5033752;28;20080;-47
2023/01/07 01:34:41;;;;;;;42.10;32.67;;;10.30;99.90;;;;;;5017885;28;20220;-47
2023/01/07 01:37:06;;;;;;;43.20;32.70;;;10.20;99.90;;;;;;5035167;28;20083;-47
2023/01/07 01:39:32;;;;;;;38.60;30.65;;;10.30;99.90;;;;;;5034959;28;20056;-47
2023/01/07 01:41:58;;;;;;;36.83;30.23;;;10.20;99.90;;;;;;5034226;28;20107;-48
2023/01/07 01:44:49;;;;;;;40.65;33.58;;;10.30;99.90;;;;;;5034961;28;20079;-48
2023/01/07 01:47:39;;;;;;;40.60;32.20;;;10.00;99.90;;;;;;5035053;28;20138;-47
2023/01/07 01:50:26;;;;;;;39.65;31.90;;;10.00;99.90;;;;;;5034236;28;20550;-46
2023/01/07 01:53:01;;;;;;;35.00;29.58;;;10.10;99.90;;;;;;5034516;28;20388;-48
2023/01/07 01:55:37;;;;;;;38.15;30.20;;;10.10;99.90;;;;;;5017487;28;20041;-47
2023/01/07 01:58:08;;;;;;;37.92;30.70;;;10.20;99.90;;;;;;5034719;28;20049;-47
2023/01/07 02:00:35;;;;;;;33.25;29.67;;;10.20;99.90;;;;;;5034597;28;20476;-47
2023/01/07 02:03:01;;;;;;;32.38;28.65;;;10.10;99.90;;;;;;5015753;28;20056;-48
2023/01/07 02:05:37;;;;;;;30.77;27.60;;;10.10;99.90;;;;;;5034415;28;20369;-47
2023/01/07 02:08:03;;;;;;;31.40;27.95;;;10.30;99.90;;;;;;5017059;28;20136;-47
2023/01/07 02:10:30;;;;;;;28.92;25.85;;;10.30;99.90;;;;;;5015941;28;20075;-50
2023/01/07 02:13:08;;;;;;;30.63;27.42;;;10.10;99.90;;;;;;5034171;28;20085;-47
2023/01/07 02:16:08;;;;;;;29.75;26.58;;;10.30;99.90;;;;;;5034592;28;20396;-48
2023/01/07 02:19:23;;;;;;;31.75;25.35;;;10.30;99.90;;;;;;5032751;28;20045;-47
2023/01/07 02:22:07;;;;;;;29.58;26.52;;;10.00;99.90;;;;;;4942342;28;20093;-48
2023/01/07 02:25:11;;;;;;;32.42;27.73;;;10.10;99.90;;;;;;4952624;28;20093;-47
2023/01/07 02:27:48;;;;;;;33.67;28.70;;;10.40;99.90;;;;;;4858055;29;20061;-46
2023/01/07 02:30:30;;;;;;;31.60;27.15;;;10.30;99.90;;;;;;4858851;29;20057;-47
2023/01/07 02:33:06;;;;;;;33.13;29.73;;;10.20;99.90;;;;;;4846771;29;20613;-48
2023/01/07 02:35:34;;;;;;;34.25;29.25;;;10.10;99.90;;;;;;4857913;29;20060;-46
2023/01/07 02:38:31;;;;;;;35.83;31.27;;;10.30;99.90;;;;;;4858363;29;20552;-46
2023/01/07 02:41:06;;;;;;;35.15;31.48;;;10.00;99.90;;;;;;4857746;29;20103;-48
2023/01/07 02:44:09;;;;;;;37.38;33.38;;;10.00;99.90;;;;;;4858033;29;20290;-46
2023/01/07 02:46:43;;;;;;;36.70;32.40;;;10.20;99.90;;;;;;4839047;29;20089;-48
2023/01/07 02:49:13;;;;;;;38.17;32.38;;;10.30;99.90;;;;;;4839171;29;20058;-47
2023/01/07 02:51:39;;;;;;;36.33;32.67;;;10.00;99.90;;;;;;4838061;29;20397;-46
2023/01/07 02:54:28;;;;;;;37.67;32.10;;;10.00;99.90;;;;;;4840106;29;20401;-49
2023/01/07 02:57:21;;;;;;;37.15;33.13;;;10.00;99.90;;;;;;4853913;29;20064;-49
2023/01/07 02:59:52;;;;;;;33.90;30.35;;;9.90;99.90;;;;;;4895375;29;20503;-50
2023/01/07 03:02:49;;;;;;;36.10;31.23;;;10.20;99.90;;;;;;4892146;29;20135;-47
2023/01/07 03:05:34;;;;;;;34.45;30.60;;;10.10;99.90;;;;;;4949983;28;20178;-48
2023/01/07 03:08:12;;;;;;;35.22;31.52;;;10.00;99.90;;;;;;4971678;28;20057;-51
2023/01/07 03:10:43;;;;;;;37.78;33.78;;;10.10;99.90;;;;;;4982511;28;20050;-46
2023/01/07 03:13:23;;;;;;;37.95;33.13;;;9.90;99.90;;;;;;4956778;28;20129;-48
2023/01/07 03:16:09;;;;;;;35.42;31.52;;;10.10;99.90;;;;;;4971059;28;20049;-47
2023/01/07 03:18:44;;;;;;;35.38;31.02;;;9.90;99.90;;;;;;4969925;28;20046;-47
2023/01/07 03:21:13;;;;;;;36.25;32.17;;;10.10;99.90;;;;;;5015262;28;20111;-48
2023/01/07 03:23:45;;;;;;;36.78;31.50;;;9.80;99.90;;;;;;5034001;28;20136;-46
2023/01/07 03:26:12;;;;;;;36.45;31.88;;;9.80;99.90;;;;;;5034442;28;20049;-48
2023/01/07 03:28:40;;;;;;;36.28;32.53;;;10.10;99.90;;;;;;5033397;28;20053;-48
2023/01/07 03:31:09;;;;;;;34.67;31.08;;;10.10;99.90;;;;;;5032346;28;20056;-48
2023/01/07 03:33:52;;;;;;;34.75;30.55;;;9.90;99.90;;;;;;5033158;28;20045;-49
2023/01/07 03:36:22;;;;;;;35.20;31.20;;;9.90;99.90;;;;;;5034552;28;20049;-49
2023/01/07 03:38:49;;;;;;;36.85;30.05;;;10.00;99.90;;;;;;5033765;28;20045;-50
2023/01/07 03:42:38;;;;;;;32.17;28.48;;;9.80;99.90;;;;;;5032445;28;20337;-47
2023/01/07 03:44:01;;;;;;;33.85;29.17;;;9.90;99.90;;;;;;5018941;28;20387;-47
2023/01/07 03:46:27;;;;;;;33.80;28.27;;;10.00;99.90;;;;;;5019665;28;20040;-49
2023/01/07 03:48:53;;;;;;;33.78;27.98;;;9.80;99.90;;;;;;5036655;28;20372;-47
2023/01/07 03:51:19;;;;;;;33.13;28.70;;;10.10;99.90;;;;;;5035483;28;20045;-47
2023/01/07 03:53:44;;;;;;;32.13;27.45;;;9.80;99.90;;;;;;5036925;28;20080;-48
2023/01/07 03:56:10;;;;;;;32.75;27.85;;;9.90;99.90;;;;;;5037488;28;20041;-47
2023/01/07 03:58:35;;;;;;;30.63;27.08;;;9.90;99.90;;;;;;5037110;28;20495;-47
2023/01/07 04:01:01;;;;;;;37.92;28.67;;;10.00;99.90;;;;;;5018567;28;20123;-51
2023/01/07 04:03:27;;;;;;;31.77;27.98;;;10.00;99.90;;;;;;5036475;28;20052;-47
2023/01/07 04:05:52;;;;;;;33.83;27.05;;;9.90;99.90;;;;;;5036559;28;20052;-49
2023/01/07 04:08:18;;;;;;;33.40;28.35;;;9.90;99.90;;;;;;5036702;28;20075;-50
2023/01/07 04:10:44;;;;;;;32.47;27.80;;;9.80;99.90;;;;;;5036170;28;20123;-47
2023/01/07 04:13:09;;;;;;;35.10;28.73;;;9.80;99.90;;;;;;5036970;28;20144;-46
2023/01/07 04:15:35;;;;;;;36.00;29.05;;;9.70;99.90;;;;;;5036636;28;20128;-47
2023/01/07 04:18:00;;;;;;;35.28;29.58;;;9.80;99.90;;;;;;5036252;28;20076;-48
2023/01/07 04:20:26;;;;;;;34.22;29.25;;;9.90;99.90;;;;;;5035586;28;20048;-48
2023/01/07 04:22:52;;;;;;;33.85;27.65;;;9.70;99.90;;;;;;5035346;28;20041;-49
2023/01/07 04:25:18;;;;;;;34.25;28.70;;;9.70;99.90;;;;;;5018223;28;20045;-47
2023/01/07 04:27:43;;;;;;;38.90;29.45;;;9.70;99.90;;;;;;5037365;28;20106;-47
2023/01/07 04:30:09;;;;;;;31.42;26.95;;;9.80;99.90;;;;;;5036463;28;20037;-46
2023/01/07 04:32:35;;;;;;;33.67;27.38;;;9.90;99.90;;;;;;5035439;28;20609;-47
2023/01/07 04:35:01;;;;;;;33.08;29.35;;;9.90;99.90;;;;;;5036275;28;20307;-46
2023/01/07 04:37:26;;;;;;;33.25;28.90;;;9.90;99.90;;;;;;5035438;28;20107;-50
2023/01/07 04:39:52;;;;;;;32.47;28.45;;;9.70;99.90;;;;;;5018119;28;20056;-48
2023/01/07 04:42:17;;;;;;;32.88;26.73;;;9.80;99.90;;;;;;5034873;28;20102;-46
2023/01/07 04:44:43;;;;;;;35.33;27.75;;;9.90;99.90;;;;;;5036907;28;20037;-47
2023/01/07 04:47:09;;;;;;;34.00;27.88;;;9.80;99.90;;;;;;5035960;28;20115;-48
2023/01/07 04:49:34;;;;;;;29.90;26.58;;;9.70;99.90;;;;;;5036473;28;20048;-48
2023/01/07 04:52:00;;;;;;;34.95;27.20;;;9.70;99.90;;;;;;5034217;28;20442;-48
2023/01/07 04:54:25;;;;;;;29.50;26.35;;;9.80;99.90;;;;;;5034456;28;20104;-47
2023/01/07 04:56:51;;;;;;;30.90;25.17;;;9.70;99.90;;;;;;5036355;28;20399;-49
2023/01/07 04:59:17;;;;;;;32.47;25.67;;;9.70;99.90;;;;;;5018931;28;20453;-46
2023/01/07 05:01:42;;;;;;;28.98;25.52;;;9.70;99.90;;;;;;5033734;28;20110;-47
2023/01/07 05:04:08;;;;;;;32.70;26.55;;;9.90;99.90;;;;;;5034299;28;20145;-48
2023/01/07 05:06:34;;;;;;;30.02;25.75;;;9.80;99.90;;;;;;5046581;28;20746;-48
2023/01/07 05:08:59;;;;;;;29.63;25.38;;;9.70;99.90;;;;;;5035757;28;20068;-47
2023/01/07 05:11:25;;;;;;;30.02;24.95;;;9.90;99.90;;;;;;5034353;28;20049;-48
2023/01/07 05:13:51;;;;;;;34.20;25.77;;;9.70;99.90;;;;;;5036037;28;20036;-47
2023/01/07 05:16:17;;;;;;;27.38;24.08;;;9.80;99.90;;;;;;5035558;28;20120;-49
2023/01/07 05:18:43;;;;;;;28.25;25.17;;;9.70;99.90;;;;;;5017676;28;20052;-47
2023/01/07 05:21:09;;;;;;;29.40;25.23;;;9.90;99.90;;;;;;5033518;28;20084;-47
2023/01/07 05:23:35;;;;;;;29.23;24.63;;;9.80;99.90;;;;;;5016912;28;20107;-47
2023/01/07 05:26:01;;;;;;;26.13;23.23;;;9.60;99.90;;;;;;5035492;28;20048;-47
2023/01/07 05:28:27;;;;;;;29.92;24.30;;;9.70;99.90;;;;;;5034846;28;20487;-47
2023/01/07 05:30:53;;;;;;;26.25;23.52;;;9.60;99.90;;;;;;5033727;28;20129;-47
2023/01/07 05:33:19;;;;;;;26.38;22.25;;;9.60;99.90;;;;;;5035282;28;20131;-47
2023/01/07 05:35:47;;;;;;;27.85;23.60;;;9.80;99.90;;;;;;5034844;28;20052;-51
2023/01/07 05:38:13;;;;;;;25.38;22.63;;;9.60;99.90;;;;;;5034867;28;20053;-47
2023/01/07 05:40:40;;;;;;;25.20;21.90;;;9.70;99.90;;;;;;5015828;28;20045;-47
2023/01/07 05:43:06;;;;;;;27.88;22.15;;;9.80;99.90;;;;;;5034376;28;20424;-48
2023/01/07 05:45:32;;;;;;;28.67;23.38;;;9.60;99.90;;;;;;5034195;28;20048;-48
2023/01/07 05:47:57;;;;;;;27.45;22.33;;;9.60;99.90;;;;;;5033921;28;20037;-48
2023/01/07 05:50:24;;;;;;;24.67;20.83;;;9.80;99.90;;;;;;5032944;28;20049;-48
2023/01/07 05:52:51;;;;;;;25.42;20.50;;;9.70;99.90;;;;;;5034213;28;20041;-47
2023/01/07 05:55:16;;;;;;;23.30;20.08;;;9.70;99.90;;;;;;5034319;28;20128;-48
2023/01/07 05:57:42;;;;;;;22.52;20.13;;;9.70;99.90;;;;;;5035012;28;20384;-46
2023/01/07 06:00:09;;;;;;;22.55;20.35;;;9.50;99.90;;;;;;5034297;28;20447;-47
2023/01/07 06:02:36;;;;;;;23.23;20.45;;;9.60;99.90;;;;;;5033803;28;20300;-48
2023/01/07 06:05:02;;;;;;;21.25;19.15;;;9.40;99.90;;;;;;5034174;28;20390;-49
2023/01/07 06:07:28;;;;;;;22.13;19.45;;;9.40;99.90;;;;;;5015857;28;20140;-48
2023/01/07 06:09:53;;;;;;;21.85;19.55;;;9.40;99.90;;;;;;5034636;28;20833;-46
2023/01/07 06:12:19;;;;;;;22.83;20.25;;;9.60;99.90;;;;;;5033135;28;20072;-47
2023/01/07 06:14:45;;;;;;;21.88;19.58;;;9.50;99.90;;;;;;5034084;28;20860;-47
2023/01/07 06:17:10;;;;;;;22.10;19.02;;;9.60;99.90;;;;;;5034075;28;20049;-49
2023/01/07 06:19:36;;;;;;;22.08;18.33;;;9.50;99.90;;;;;;5034087;28;20383;-47
2023/01/07 06:22:02;;;;;;;22.27;18.25;;;9.60;99.90;;;;;;5033462;28;20059;-48
2023/01/07 06:24:28;;;;;;;21.70;19.20;;;9.50;99.90;;;;;;5033432;28;20047;-47
2023/01/07 06:26:53;;;;;;;21.17;18.75;;;9.40;99.90;;;;;;5034025;28;20051;-47
2023/01/07 06:29:19;;;;;;;21.50;17.85;;;9.40;99.90;;;;;;5015790;28;20095;-48
2023/01/07 06:31:45;;;;;;;25.20;18.85;;;9.50;99.90;;;;;;5033005;28;20178;-50
2023/01/07 06:34:10;;;;;;;20.77;18.55;;;9.50;99.90;;;;;;5033926;28;20080;-48
2023/01/07 06:36:36;;;;;;;21.15;18.38;;;9.50;99.90;;;;;;5033546;28;20045;-48
2023/01/07 06:39:02;;;;;;;21.23;18.40;;;9.50;99.90;;;;;;5034061;28;20052;-48
2023/01/07 06:41:27;;;;;;;20.23;18.17;;;9.40;99.90;;;;;;5033503;28;21048;-47
2023/01/07 06:43:53;;;;;;;23.98;18.40;;;9.30;99.90;;;;;;5033831;28;20041;-48
2023/01/07 06:46:19;;;;;;;19.95;17.90;;;9.30;99.90;;;;;;5033710;28;20056;-49
2023/01/07 06:48:44;;;;;;;24.75;19.08;;;9.30;99.90;;;;;;5033755;28;20555;-51
2023/01/07 06:51:10;;;;;;;24.42;18.98;;;9.30;99.90;;;;;;5032286;28;20613;-48
2023/01/07 06:53:36;;;;;;;20.75;17.42;;;9.40;99.90;;;;;;5033104;28;20387;-48
2023/01/07 06:56:02;;;;;;;19.65;17.50;;;9.40;99.90;;;;;;5033466;28;20131;-46
2023/01/07 06:58:27;;;;;;;23.10;17.58;;;9.50;99.90;;;;;;5032961;28;20066;-48
2023/01/07 07:00:53;;;;;;;19.83;16.55;;;9.50;99.90;;;;;;5032368;28;20105;-48
2023/01/07 07:03:19;;;;;;;19.05;17.05;;;9.50;99.90;;;;;;5033311;28;20094;-47
2023/01/07 07:05:45;;;;;;;19.42;17.10;;;9.50;99.90;;;;;;5034272;28;20049;-48
2023/01/07 07:08:11;;;;;;;18.63;16.65;;;9.50;99.90;;;;;;5033441;28;20036;-47
2023/01/07 07:10:36;;;;;;;18.85;16.05;;;9.50;99.90;;;;;;5032235;28;20470;-48
2023/01/07 07:13:02;;;;;;;19.10;15.30;;;9.50;99.90;;;;;;5033289;28;20542;-48
2023/01/07 07:15:28;;;;;;;18.10;15.77;;;9.40;99.90;;;;;;5033640;28;20049;-47
2023/01/07 07:17:53;;;;;;;19.92;16.02;;;9.30;99.90;;;;;;5035311;28;20156;-48
2023/01/07 07:20:19;;;;;;;16.17;14.48;;;9.50;99.90;;;;;;5035869;28;20454;-48
2023/01/07 07:22:46;;;;;;;17.30;13.93;;;9.50;99.90;;;;;;5037571;28;20457;-49
2023/01/07 07:25:12;;;;;;;16.65;14.15;;;9.40;99.90;;;;;;5037483;28;20136;-47
2023/01/07 07:27:37;;;;;;;16.20;14.43;;;9.50;99.90;;;;;;5036406;28;20037;-46
2023/01/07 07:30:04;;;;;;;15.77;14.18;;;9.50;99.90;;;;;;5036983;28;20052;-46
2023/01/07 07:32:29;;;;;;;18.20;14.65;;;9.30;99.90;;;;;;5018247;28;20052;-47
2023/01/07 07:34:56;;;;;;;16.30;13.85;;;9.40;99.90;;;;;;5036691;28;20252;-47
2023/01/07 07:37:21;;;;;;;15.63;13.48;;;9.40;99.90;;;;;;5037034;28;20507;-48
2023/01/07 07:39:50;;;;;;;17.42;13.68;;;9.20;99.90;;;;;;5037338;28;20124;-49
2023/01/07 07:42:16;;;;;;;15.70;13.98;;;9.20;99.90;;;;;;5018517;28;20057;-50
2023/01/07 07:44:41;;;;;;;18.33;13.45;;;9.20;99.90;;;;;;5037436;28;20384;-48
2023/01/07 07:47:09;;;;;;;15.98;14.27;;;9.10;99.90;;;;;;5036783;28;20412;-47
2023/01/07 07:49:34;;;;;;;14.77;13.18;;;9.20;99.90;;;;;;5036814;28;20194;-47
2023/01/07 07:52:00;;;;;;;14.15;12.75;;;9.20;99.90;;;;;;5035225;28;20474;-47
2023/01/07 07:54:27;;;;;;;15.35;12.43;;;9.10;99.90;;;;;;5036236;28;20048;-47
2023/01/07 07:56:53;;;;;;;13.68;12.25;;;9.10;99.90;;;;;;5036606;28;20425;-47
2023/01/07 07:59:18;;;;;;;17.30;14.20;;;8.90;99.90;;;;;;5037135;28;20344;-50
2023/01/07 08:01:44;;;;;;;14.00;12.60;;;8.90;99.90;;;;;;5018477;28;20128;-47
2023/01/07 08:04:09;;;;;;;17.70;12.35;;;9.00;99.90;;;;;;5019212;28;20594;-46
2023/01/07 08:06:35;;;;;;;14.63;12.50;;;9.00;99.90;;;;;;5036408;28;20041;-48
2023/01/07 08:09:01;;;;;;;13.52;12.00;;;9.00;99.90;;;;;;5018661;28;20130;-49
2023/01/07 08:11:27;;;;;;;16.48;13.85;;;8.80;99.90;;;;;;5034643;28;20073;-46
2023/01/07 08:13:52;;;;;;;15.57;13.05;;;9.00;99.90;;;;;;5036793;28;20425;-47
2023/01/07 08:16:18;;;;;;;15.52;12.80;;;8.90;99.90;;;;;;5036126;28;20376;-50
2023/01/07 08:18:44;;;;;;;14.55;12.07;;;8.90;99.90;;;;;;5035069;28;20124;-47
2023/01/07 08:21:09;;;;;;;13.23;11.05;;;9.00;99.90;;;;;;5035005;28;20041;-50
2023/01/07 08:23:35;;;;;;;13.15;10.57;;;8.90;99.90;;;;;;5035874;28;20040;-47
2023/01/07 08:26:02;;;;;;;12.80;11.52;;;9.00;99.90;;;;;;5035135;28;20056;-46
2023/01/07 08:28:32;;;;;;;13.27;11.50;;;9.10;99.90;;;;;;5035105;28;20098;-47
2023/01/07 08:31:02;;;;;;;11.77;10.32;;;9.20;99.90;;;;;;5034623;28;20458;-46
2023/01/07 08:33:28;;;;;;;12.70;10.63;;;9.10;99.90;;;;;;5017316;28;20103;-47
2023/01/07 08:35:54;;;;;;;11.15;9.75;;;9.10;99.90;;;;;;5034407;28;20795;-48
2023/01/07 08:38:19;;;;;;;12.70;9.93;;;9.10;99.90;;;;;;5017554;28;20060;-48
2023/01/07 08:40:45;;;;;;;11.02;9.63;;;9.20;99.90;;;;;;5034108;28;20397;-47
2023/01/07 08:43:11;;;;;;;15.07;8.40;;;9.20;99.90;;;;;;5035583;28;20049;-47
2023/01/07 08:45:37;;;;;;;13.65;8.30;;;9.20;99.90;;;;;;5016700;28;20049;-50
2023/01/07 08:48:03;;;;;;;10.25;8.52;;;9.20;99.90;;;;;;5017851;28;20463;-46
2023/01/07 08:50:31;;;;;;;9.98;7.78;;;9.20;99.90;;;;;;5033283;28;20325;-47
2023/01/07 08:52:58;;;;;;;10.20;9.00;;;9.20;99.90;;;;;;5035123;28;20045;-47
2023/01/07 08:55:23;;;;;;;9.77;8.13;;;9.00;99.90;;;;;;5034883;28;20043;-48
2023/01/07 08:57:50;;;;;;;9.82;7.60;;;9.10;99.90;;;;;;5035140;28;20485;-48
2023/01/07 09:00:18;;;;;;;7.72;6.88;;;9.20;99.90;;;;;;5033936;28;20229;-47
2023/01/07 09:02:44;;;;;;;8.10;7.00;;;9.00;99.90;;;;;;5035451;28;20057;-49
2023/01/07 09:05:10;;;;;;;12.38;7.97;;;9.10;99.90;;;;;;5034762;28;20642;-47
2023/01/07 09:07:37;;;;;;;10.73;7.88;;;9.10;99.90;;;;;;5034848;28;20171;-47
2023/01/07 09:10:03;;;;;;;15.38;10.60;;;9.20;99.90;;;;;;5000419;28;20088;-49
2023/01/07 09:12:28;;;;;;;7.75;6.28;;;9.20;99.90;;;;;;5034331;28;20444;-47
2023/01/07 09:14:54;;;;;;;6.93;6.15;;;9.10;99.90;;;;;;5034989;28;20048;-47
2023/01/07 09:17:20;;;;;;;9.70;6.63;;;9.00;99.90;;;;;;5034800;28;20144;-47
2023/01/07 09:19:45;;;;;;;7.22;6.22;;;9.20;99.90;;;;;;5034264;28;20056;-47
2023/01/07 09:22:11;;;;;;;7.75;5.55;;;9.10;99.90;;;;;;5016948;28;20087;-50
2023/01/07 09:24:37;;;;;;;9.95;5.45;;;9.10;99.90;;;;;;5033854;28;20122;-47
2023/01/07 09:27:02;;;;;;;6.55;5.35;;;9.20;99.90;;;;;;5035176;28;20048;-46
2023/01/07 09:29:28;;;;;;;7.38;5.07;;;9.20;99.90;;;;;;5034905;28;20604;-48
2023/01/07 09:31:54;;;;;;;11.80;5.55;;;9.10;99.90;;;;;;5034539;28;20045;-50
2023/01/07 09:34:20;;;;;;;8.07;4.90;;;9.20;99.90;;;;;;5032073;28;20045;-47
2023/01/07 09:36:45;;;;;;;5.45;4.55;;;9.20;99.90;;;;;;5015056;28;20121;-50
2023/01/07 09:39:11;;;;;;;7.20;4.78;;;9.20;99.90;;;;;;5034270;28;20136;-48
2023/01/07 09:42:01;;;;;;;8.40;4.60;;;9.20;99.90;;;;;;5015057;28;20079;-49
2023/01/07 09:44:43;;;;;;;5.90;4.20;;;9.10;99.90;;;;;;5035002;28;20379;-47
2023/01/07 09:47:11;;;;;;;6.15;4.70;;;9.10;99.90;;;;;;5034376;28;20119;-50
2023/01/07 09:49:38;;;;;;;5.28;4.10;;;9.20;99.90;;;;;;5016331;28;20041;-48
2023/01/07 09:52:21;;;;;;;10.48;4.80;;;9.10;99.90;;;;;;5033962;28;20807;-47
2023/01/07 09:54:52;;;;;;;6.32;4.30;;;9.20;99.90;;;;;;5034772;28;20071;-47
2023/01/07 09:57:17;;;;;;;7.55;3.70;;;9.20;99.90;;;;;;5034809;28;20514;-47
2023/01/07 09:59:44;;;;;;;5.00;4.10;;;9.10;99.90;;;;;;5034431;28;20045;-48
2023/01/07 10:02:22;;;;;;;5.72;3.88;;;9.10;99.90;;;;;;5033731;28;20384;-49
2023/01/07 10:05:08;;;;;;;7.13;4.10;;;9.10;99.90;;;;;;5034178;28;20462;-51
2023/01/07 10:07:40;;;;;;;6.80;3.90;;;9.20;99.90;;;;;;5034335;28;20919;-47
2023/01/07 10:10:24;;;;;;;8.38;5.03;;;9.20;99.90;;;;;;5015642;28;20055;-47
2023/01/07 10:13:00;;;;;;;7.18;3.90;;;9.20;99.90;;;;;;5015447;28;20041;-50
2023/01/07 10:15:34;;;;;;;4.85;3.05;;;9.30;99.90;;;;;;5033373;28;20388;-48
2023/01/07 10:18:36;;;;;;;5.20;3.17;;;9.40;99.90;;;;;;5031410;28;20549;-51
2023/01/07 10:21:11;;;;;;;3.85;3.10;;;9.40;99.90;;;;;;5032107;28;20435;-48
2023/01/07 10:23:44;;;;;;;6.38;3.22;;;9.50;99.90;;;;;;5032110;28;20471;-48
2023/01/07 10:26:27;;;;;;;4.80;3.30;;;9.50;99.90;;;;;;5032823;28;20037;-47
2023/01/07 10:29:15;;;;;;;4.57;2.90;;;9.60;99.90;;;;;;5032756;28;20481;-47
2023/01/07 10:31:42;;;;;;;5.72;2.97;;;9.50;99.90;;;;;;5014279;28;20499;-47
2023/01/07 10:34:23;;;;;;;8.55;3.95;;;9.60;99.90;;;;;;5034202;28;20340;-47
2023/01/07 10:36:56;;;;;;;4.25;3.00;;;9.60;99.90;;;;;;5033754;28;20045;-50
2023/01/07 10:39:28;;;;;;;;;;;9.60;99.90;;;;;;5034493;28;20126;-47
2023/01/07 10:42:14;;;;;;;4.32;3.38;;;9.70;99.90;;;;;;5014974;28;19969;-46
2023/01/07 10:45:02;;;;;;;4.95;2.85;;;9.70;99.90;;;;;;5033012;28;20045;-46
2023/01/07 10:47:37;;;;;;;2.65;2.28;;;9.80;99.90;;;;;;5029853;28;20072;-47
2023/01/07 10:50:20;;;;;;;4.07;2.70;;;9.80;99.90;;;;;;5030826;28;20621;-48
2023/01/07 10:53:27;;;;;;;3.65;2.60;;;9.90;99.90;;;;;;5037575;28;20051;-47
2023/01/07 10:56:20;;;;;;;4.40;2.33;;;9.90;99.90;;;;;;5034290;28;20053;-47
2023/01/07 10:58:48;;;;;;;4.63;2.80;;;10.00;99.90;;;;;;5037304;28;20052;-47
2023/01/07 11:01:35;;;;;;;4.85;2.25;;;10.10;99.90;;;;;;5036318;28;20280;-47
2023/01/07 11:04:01;;;;;;;3.85;2.17;;;10.10;99.90;;;;;;5037889;28;20859;-47
2023/01/07 11:06:30;;;;;;;4.25;2.13;;;10.20;99.90;;;;;;5037695;28;20044;-48
2023/01/07 11:08:55;;;;;;;3.03;2.38;;;10.20;99.90;;;;;;5037626;28;20044;-48
2023/01/07 11:11:23;;;;;;;3.08;1.98;;;10.20;99.90;;;;;;5036557;28;20049;-47
2023/01/07 11:14:02;;;;;;;3.53;2.38;;;10.20;99.90;;;;;;5019150;28;20037;-47
2023/01/07 11:16:34;;;;;;;2.83;2.20;;;10.20;99.90;;;;;;5036464;28;20041;-47
2023/01/07 11:19:07;;;;;;;4.07;2.20;;;10.20;99.90;;;;;;5036923;28;20041;-48
2023/01/07 11:21:39;;;;;;;2.83;2.28;;;10.20;99.90;;;;;;5023412;28;20415;-47
2023/01/07 11:24:26;;;;;;;4.70;2.58;;;10.20;99.90;;;;;;5037356;28;20155;-47
2023/01/07 11:26:59;;;;;;;5.13;2.38;;;10.30;99.90;;;;;;5019435;28;20134;-49
2023/01/07 11:29:28;;;;;;;3.50;2.42;;;10.20;99.90;;;;;;5037168;28;20041;-47
2023/01/07 11:31:56;;;;;;;4.30;2.20;;;10.30;99.90;;;;;;5037291;28;20499;-49
2023/01/07 11:34:55;;;;;;;3.88;2.13;;;10.30;99.90;;;;;;5037078;28;20059;-49
2023/01/07 11:37:39;;;;;;;2.28;1.63;;;10.20;99.90;;;;;;5037473;28;20055;-48
2023/01/07 11:40:14;;;;;;;3.03;1.95;;;10.20;99.90;;;;;;5018093;28;20045;-47
2023/01/07 11:43:03;;;;;;;1.92;1.73;;;10.20;99.90;;;;;;5037480;28;20206;-49
2023/01/07 11:45:37;;;;;;;4.07;1.80;;;10.20;99.90;;;;;;5018583;28;20041;-47
2023/01/07 11:48:18;;;;;;;3.80;1.77;;;10.20;99.90;;;;;;5036637;28;20441;-47
2023/01/07 11:51:01;;;;;;;2.25;1.88;;;10.20;99.90;;;;;;5032831;28;20049;-48
2023/01/07 11:53:32;;;;;;;3.72;1.88;;;10.20;99.90;;;;;;5031160;28;20041;-48
2023/01/07 11:56:04;;;;;;;3.58;2.30;;;10.20;99.90;;;;;;5031702;28;20091;-47
2023/01/07 11:58:45;;;;;;;3.65;1.98;;;10.20;99.90;;;;;;5034141;28;20657;-47
2023/01/07 12:01:12;;;;;;;4.93;2.40;;;10.20;99.90;;;;;;5033671;28;20053;-48
2023/01/07 12:03:42;;;;;;;2.42;1.80;;;10.30;99.90;;;;;;5034882;28;20434;-46
2023/01/07 12:06:29;;;;;;;4.00;2.65;;;10.30;99.90;;;;;;5035441;28;20048;-48
2023/01/07 12:09:21;;;;;;;3.30;1.90;;;10.40;99.90;;;;;;5035131;28;20582;-47
2023/01/07 12:11:47;;;;;;;2.80;1.50;;;10.40;99.90;;;;;;5013465;28;20045;-47
2023/01/07 12:14:16;;;;;;;2.42;1.60;;;10.40;99.90;;;;;;5036788;28;20045;-48
2023/01/07 12:16:43;;;;;;;3.20;1.55;;;10.40;99.90;;;;;;5035779;28;20057;-49
2023/01/07 12:19:34;;;;;;;9.85;1.83;;;10.50;99.90;;;;;;5036252;28;20049;-49
2023/01/07 12:22:06;;;;;;;2.38;1.45;;;10.50;99.90;;;;;;5035579;28;20566;-48
2023/01/07 12:24:44;;;;;;;2.30;1.55;;;10.50;99.90;;;;;;5000870;28;20049;-47
2023/01/07 12:27:42;;;;;;;2.83;1.60;;;10.60;99.90;;;;;;5035642;28;20053;-48
2023/01/07 12:30:20;;;;;;;2.38;1.50;;;10.60;99.90;;;;;;4971872;28;20638;-46
2023/01/07 12:32:52;;;;;;;3.30;1.65;;;10.60;99.90;;;;;;4973376;28;20042;-48
2023/01/07 12:35:28;;;;;;;3.58;1.75;;;10.70;99.90;;;;;;4973000;28;20512;-46
2023/01/07 12:38:07;;;;;;;2.85;1.52;;;10.70;99.90;;;;;;4973062;28;20058;-47
2023/01/07 12:40:39;;;;;;;2.90;1.35;;;10.70;99.90;;;;;;4972895;28;20066;-48
2023/01/07 12:43:11;;;;;;;4.18;1.30;;;10.70;99.90;;;;;;4973774;28;20077;-49
2023/01/07 12:45:46;;;;;;;2.63;1.55;;;10.60;99.90;;;;;;4966803;28;20523;-47
2023/01/07 12:48:39;;;;;;;2.53;1.40;;;10.60;99.90;;;;;;4973066;28;20090;-47
2023/01/07 12:51:18;;;;;;;3.33;1.63;;;10.60;99.90;;;;;;4954010;28;20121;-47
2023/01/07 12:53:55;;;;;;;6.45;1.80;;;10.60;99.90;;;;;;4973275;28;20046;-47
2023/01/07 12:56:31;;;;;;;2.83;1.73;;;10.60;99.90;;;;;;4973514;28;20054;-49
2023/01/07 12:59:17;;;;;;;3.15;1.70;;;10.60;99.90;;;;;;4957790;28;20519;-49